createdAt,value
2022-08-22T00:00:53.190Z,11.15
2022-08-22T00:02:43.674Z,9.70
2022-08-22T00:02:46.232Z,6.10
2022-08-22T00:02:47.978Z,8.95
2022-08-22T00:03:11.263Z,8.65
2022-08-22T00:06:09.749Z,8.50
2022-08-22T00:11:25.732Z,8.05
2022-08-22T00:16:39.508Z,6.35
2022-08-22T00:21:52.930Z,9.20
2022-08-22T00:27:02.178Z,8.80
2022-08-22T00:32:15.108Z,5.80
2022-08-22T00:37:25.134Z,10.38
2022-08-22T00:42:52.615Z,5.95
2022-08-22T00:48:11.064Z,9.93
2022-08-22T00:53:32.725Z,8.48
2022-08-22T00:59:22.874Z,9.85
2022-08-22T01:04:51.626Z,11.63
2022-08-22T01:10:05.074Z,10.38
2022-08-22T01:15:12.020Z,19.55
2022-08-22T01:20:53.359Z,10.25
2022-08-22T01:26:30.088Z,11.27
2022-08-22T01:32:10.935Z,11.60
2022-08-22T01:37:35.057Z,10.05
2022-08-22T01:43:04.781Z,12.98
2022-08-22T01:48:15.433Z,10.70
2022-08-22T01:53:28.149Z,8.77
2022-08-22T01:58:34.312Z,10.77
2022-08-22T02:03:44.444Z,17.33
2022-08-22T02:09:03.691Z,9.05
2022-08-22T02:14:18.135Z,13.13
2022-08-22T02:19:30.359Z,9.15
2022-08-22T02:24:50.612Z,9.90
2022-08-22T02:30:03.216Z,12.02
2022-08-22T02:35:18.000Z,11.23
2022-08-22T02:40:33.503Z,15.48
2022-08-22T02:45:41.731Z,14.20
2022-08-22T02:50:53.357Z,13.48
2022-08-22T02:56:04.259Z,8.30
2022-08-22T03:01:24.004Z,18.83
2022-08-22T03:06:35.628Z,9.70
2022-08-22T03:11:44.884Z,13.20
2022-08-22T03:16:56.287Z,12.52
2022-08-22T03:22:04.578Z,11.12
2022-08-22T03:32:19.427Z,11.35
2022-08-22T03:37:29.639Z,9.40
2022-08-22T03:42:55.866Z,11.50
2022-08-22T03:48:21.276Z,11.27
2022-08-22T03:53:41.816Z,13.05
2022-08-22T03:59:26.302Z,11.32
2022-08-22T04:04:56.696Z,14.73
2022-08-22T04:10:49.770Z,11.25
2022-08-22T04:16:15.215Z,12.93
2022-08-22T04:21:40.426Z,12.88
2022-08-22T04:26:49.518Z,13.32
2022-08-22T04:32:01.805Z,13.80
2022-08-22T04:37:11.051Z,13.45
2022-08-22T04:42:34.862Z,12.68
2022-08-22T04:47:49.711Z,14.93
2022-08-22T04:53:10.274Z,14.75
2022-08-22T04:58:30.302Z,16.35
2022-08-22T05:03:44.716Z,16.30
2022-08-22T05:08:53.942Z,16.02
2022-08-22T05:14:01.728Z,14.57
2022-08-22T05:19:15.803Z,16.57
2022-08-22T05:24:28.095Z,19.10
2022-08-22T05:29:33.648Z,19.15
2022-08-22T05:34:42.706Z,14.95
2022-08-22T05:39:49.873Z,14.87
2022-08-22T05:44:55.188Z,14.60
2022-08-22T05:50:04.699Z,16.25
2022-08-22T05:55:22.655Z,9.75
2022-08-22T06:00:32.502Z,21.95
2022-08-22T06:05:43.771Z,11.85
2022-08-22T06:10:51.856Z,13.93
2022-08-22T06:16:04.095Z,18.80
2022-08-22T06:21:13.052Z,12.52
2022-08-22T06:26:20.787Z,15.23
2022-08-22T06:36:36.232Z,14.73
2022-08-22T06:46:53.433Z,17.12
2022-08-22T06:52:02.880Z,15.50
2022-08-22T06:57:13.252Z,20.60
2022-08-22T07:02:23.086Z,16.42
2022-08-22T07:07:28.859Z,22.87
2022-08-22T07:12:38.123Z,20.30
2022-08-22T07:17:50.631Z,13.48
2022-08-22T07:23:00.919Z,22.87
2022-08-22T07:28:16.301Z,18.55
2022-08-22T07:33:39.185Z,14.10
2022-08-22T07:38:48.939Z,18.50
2022-08-22T07:43:56.037Z,18.48
2022-08-22T07:49:09.618Z,18.33
2022-08-22T07:54:22.442Z,19.98
2022-08-22T07:59:34.231Z,14.85
2022-08-22T08:04:40.666Z,14.60
2022-08-22T08:09:51.051Z,20.55
2022-08-22T08:14:56.706Z,17.25
2022-08-22T08:20:07.547Z,16.65
2022-08-22T08:25:17.140Z,17.35
2022-08-22T08:30:23.420Z,17.25
2022-08-22T08:35:31.637Z,13.62
2022-08-22T08:41:14.920Z,14.98
2022-08-22T08:46:55.401Z,16.85
2022-08-22T08:52:26.904Z,13.25
2022-08-22T08:57:49.640Z,15.55
2022-08-22T09:03:00.648Z,16.05
2022-08-22T09:08:55.813Z,11.57
2022-08-22T09:14:19.603Z,12.75
2022-08-22T09:19:51.070Z,21.27
2022-08-22T09:25:17.161Z,11.98
2022-08-22T09:30:28.516Z,14.98
2022-08-22T09:35:41.200Z,10.38
2022-08-22T09:40:48.888Z,11.82
2022-08-22T09:46:06.499Z,10.73
2022-08-22T09:51:32.709Z,13.30
2022-08-22T09:56:40.354Z,11.55
2022-08-22T10:01:54.978Z,12.85
2022-08-22T10:07:12.091Z,10.23
2022-08-22T10:12:24.202Z,8.70
2022-08-22T10:17:36.549Z,12.73
2022-08-22T10:22:50.507Z,11.02
2022-08-22T10:28:10.520Z,11.57
2022-08-22T10:33:24.882Z,13.40
2022-08-22T10:38:44.224Z,12.82
2022-08-22T10:49:14.328Z,10.55
2022-08-22T10:54:33.611Z,10.87
2022-08-22T10:59:44.936Z,8.90
2022-08-22T11:05:09.318Z,12.30
2022-08-22T11:10:23.259Z,9.38
2022-08-22T11:15:57.512Z,8.20
2022-08-22T11:21:08.577Z,14.48
2022-08-22T11:26:33.678Z,9.95
2022-08-22T11:31:55.928Z,7.57
2022-08-22T11:37:23.761Z,11.35
2022-08-22T11:42:34.731Z,9.93
2022-08-22T11:48:01.027Z,7.35
2022-08-22T11:53:20.822Z,10.75
2022-08-22T11:58:42.862Z,6.30
2022-08-22T12:04:00.715Z,13.77
2022-08-22T12:09:21.912Z,5.12
2022-08-22T12:14:35.413Z,7.55
2022-08-22T12:20:14.772Z,8.88
2022-08-22T12:25:29.425Z,7.80
2022-08-22T12:30:39.033Z,10.57
2022-08-22T12:35:54.595Z,6.70
2022-08-22T12:41:28.139Z,9.95
2022-08-22T12:46:50.165Z,10.82
2022-08-22T12:52:10.647Z,8.35
2022-08-22T12:57:27.499Z,10.07
2022-08-22T13:02:35.939Z,12.10
2022-08-22T13:07:42.499Z,8.27
2022-08-22T13:17:54.137Z,8.95
2022-08-22T13:23:01.760Z,10.15
2022-08-22T13:28:13.355Z,7.12
2022-08-22T13:33:27.067Z,8.85
2022-08-22T13:38:39.323Z,6.62
2022-08-22T13:44:17.565Z,10.70
2022-08-22T13:49:33.721Z,10.52
2022-08-22T13:54:54.232Z,8.27
2022-08-22T14:00:09.292Z,8.18
2022-08-22T14:05:21.211Z,6.10
2022-08-22T14:10:28.846Z,9.23
2022-08-22T14:15:41.569Z,9.43
2022-08-22T14:20:49.764Z,6.27
2022-08-22T14:25:53.830Z,4.43
2022-08-22T14:31:04.099Z,7.30
2022-08-22T14:36:15.562Z,6.25
2022-08-22T14:41:55.765Z,9.48
2022-08-22T14:46:58.581Z,6.47
2022-08-22T14:52:07.411Z,7.40
2022-08-22T14:57:20.097Z,10.00
2022-08-22T15:02:30.703Z,6.62
2022-08-22T15:07:37.592Z,7.65
2022-08-22T15:12:48.307Z,6.10
2022-08-22T15:17:54.333Z,4.32
2022-08-22T15:23:03.095Z,6.30
2022-08-22T15:28:20.852Z,10.30
2022-08-22T15:33:29.393Z,4.12
2022-08-22T15:38:36.418Z,8.32
2022-08-22T15:43:47.968Z,11.25
2022-08-22T15:49:00.590Z,5.50
2022-08-22T15:54:24.993Z,5.75
2022-08-22T15:59:47.913Z,5.10
2022-08-22T16:05:23.680Z,7.82
2022-08-22T16:10:36.219Z,10.82
2022-08-22T16:16:01.140Z,5.45
2022-08-22T16:21:07.656Z,6.53
2022-08-22T16:26:15.232Z,5.70
2022-08-22T16:31:27.184Z,10.77
2022-08-22T16:36:45.882Z,6.30
2022-08-22T16:41:51.453Z,3.72
2022-08-22T16:47:07.719Z,6.78
2022-08-22T16:52:53.064Z,6.77
2022-08-22T16:58:07.234Z,6.82
2022-08-22T17:03:19.711Z,5.37
2022-08-22T17:08:40.367Z,6.05
2022-08-22T17:14:04.594Z,7.55
2022-08-22T17:19:21.880Z,3.87
2022-08-22T17:24:34.708Z,6.15
2022-08-22T17:29:52.079Z,7.78
2022-08-22T17:35:13.672Z,9.13
2022-08-22T17:40:32.627Z,3.87
2022-08-22T17:45:54.122Z,7.43
2022-08-22T17:51:02.542Z,5.68
2022-08-22T17:56:17.647Z,4.55
2022-08-22T18:01:43.798Z,7.05
2022-08-22T18:06:55.526Z,5.03
2022-08-22T18:12:06.085Z,4.87
2022-08-22T18:17:19.883Z,6.10
2022-08-22T18:22:28.683Z,6.70
2022-08-22T18:27:40.308Z,4.00
2022-08-22T18:32:53.705Z,7.30
2022-08-22T18:38:03.427Z,8.00
2022-08-22T18:43:37.254Z,5.30
2022-08-22T18:49:11.603Z,5.75
2022-08-22T18:54:38.386Z,4.60
2022-08-22T19:00:05.544Z,5.93
2022-08-22T19:05:40.267Z,7.55
2022-08-22T19:11:03.033Z,4.82
2022-08-22T19:16:31.778Z,5.00
2022-08-22T19:21:55.042Z,9.82
2022-08-22T19:27:24.208Z,4.75
2022-08-22T19:33:05.186Z,15.10
2022-08-22T19:38:10.565Z,10.93
2022-08-22T19:43:27.326Z,7.68
2022-08-22T19:48:44.716Z,7.35
2022-08-22T19:53:57.092Z,10.68
2022-08-22T19:59:12.560Z,8.00
2022-08-22T20:04:50.485Z,7.50
2022-08-22T20:10:05.411Z,10.88
2022-08-22T20:15:17.867Z,9.40
2022-08-22T20:20:58.288Z,8.57
2022-08-22T20:26:02.358Z,6.70
2022-08-22T20:31:10.822Z,7.62
2022-08-22T20:36:27.680Z,6.95
2022-08-22T20:41:36.705Z,7.18
2022-08-22T20:46:57.682Z,5.18
2022-08-22T20:52:05.836Z,7.47
2022-08-22T20:57:16.121Z,5.75
2022-08-22T21:02:22.585Z,10.73
2022-08-22T21:07:30.857Z,7.43
2022-08-22T21:12:34.601Z,10.93
2022-08-22T21:17:39.197Z,10.13
2022-08-22T21:22:44.800Z,10.45
2022-08-22T21:27:49.679Z,7.57
2022-08-22T21:32:56.464Z,9.43
2022-08-22T21:38:02.943Z,5.82
2022-08-22T21:43:09.427Z,6.32
2022-08-22T21:48:35.520Z,10.95
2022-08-22T21:53:40.589Z,11.20
2022-08-22T21:58:46.250Z,7.40
2022-08-22T22:03:50.033Z,7.28
2022-08-22T22:08:55.197Z,6.90
2022-08-22T22:13:59.306Z,5.12
2022-08-22T22:19:03.056Z,6.50
2022-08-22T22:24:08.408Z,12.73
2022-08-22T22:29:12.319Z,10.57
2022-08-22T22:34:16.286Z,9.65
2022-08-22T22:39:21.439Z,11.52
2022-08-22T22:44:26.150Z,8.60
2022-08-22T22:49:30.166Z,13.43
2022-08-22T22:54:35.256Z,11.82
2022-08-22T22:59:39.114Z,8.00
2022-08-22T23:04:46.206Z,8.57
2022-08-22T23:09:52.311Z,7.32
2022-08-22T23:14:57.383Z,8.57
2022-08-22T23:20:01.125Z,13.50
2022-08-22T23:25:06.786Z,10.50
2022-08-22T23:30:12.193Z,9.20
2022-08-22T23:35:16.066Z,10.90
2022-08-22T23:40:21.177Z,7.53
2022-08-22T23:45:24.945Z,9.20
2022-08-22T23:50:28.709Z,8.90
2022-08-22T23:55:33.760Z,5.53
